Kansas City, Missouri
Traffic Map
Current Weather Conditions
Kansas City, Missouri
Overcast
Overcast
81°
Feels Like: 83°
Wind Chill: 81° Ceiling: 8500
Heat Index: 83° Visibility: 10mi
Dew Point: 66° Wind: 9mph
Humidity: 60% Direction: 260° (W)
Pressure: 29.83in Gusts: 23mph
Raw Report DataKMKC 201754Z 26008G20KT 10SM OVC085 27/19 A2983 RMK AO2 SLP093 60000 T02720189 10283 20256 53002
Traffic Incident Summary
Active as of:
Severity:
Category:
InformationThere was an issue retrieving the traffic information for this location. Please try a different location or try again shortly.
Advertisements